• Join FlightAware (Why Join?)
  • Login
  • US Flag 
05:34AM EDT


 

Airport Tracker/Info


-or-


 

Live Flight TrackerFlight Track Log ✈ AWE48 ✈ 30-Apr-2012 ✈ KDCA - KLAS

Flight Track Log - Related Links

Times and Time Zones

All times are in EDT time to prevent confusion due to time zone crossing. See the AWE48 flight status page for this flight to view local times or setup timezone preferences in your user account.

Time Position Orientation Groundspeed Altitude Reporting Facility
EDT Latitude Longitude Course Direction KTS MPH feet Rate Location/Type
09:08PM 38.8671 -77.0666 153° Southeast  Level FlightAware Approximate
09:08PM 38.8167 -77.0333 195° South 155 178 1,800  Level Potomac TRACON
09:09PM 38.7667 -77.0500 256° West 225 259 3,400 1,320 Climbing Potomac TRACON
09:10PM 38.7500 -77.1333 297° West 243 280 4,400 1,020 Climbing Potomac TRACON
09:11PM 38.7833 -77.2167 303° West 257 296 5,400 2,100 Climbing Potomac TRACON
09:12PM 38.8167 -77.2833 284° West 247 284 8,600 3,240 Climbing Potomac TRACON
09:13PM 38.8333 -77.3667 297° West 235 270 12,000 2,280 Climbing Potomac TRACON
09:14PM 38.8667 -77.4500 314° West 277 319 13,200 1,140 Climbing Potomac TRACON
09:15PM 38.9167 -77.5167 354° North 352 405 14,200 1,560 Climbing Potomac TRACON
09:16PM 39.0333 -77.5333 333° Northwest 404 465 16,400 840 Climbing Potomac TRACON
09:18PM 39.2250 -77.6572 333° Northwest 364 419 17,000 660 Climbing Washington Center
09:19PM 39.3178 -77.7189 333° Northwest 364 419 18,600 1,740 Climbing Washington Center
09:20PM 39.4144 -77.7836 333° Northwest 369 425 20,500 1,740 Climbing Washington Center
09:21PM 39.5133 -77.8483 296° West 382 440 22,100 1,320 Climbing Washington Center
09:24PM 39.6286 -78.1600 290° West 387 445 25,200 1,620 Climbing Cleveland Center
09:25PM 39.6714 -78.3094 290° West 402 463 27,800 1,800 Climbing Cleveland Center
09:26PM 39.7094 -78.4458 291° West 402 463 28,900 960 Climbing Cleveland Center
09:27PM 39.7494 -78.5797 290° West 402 463 29,800 900 Climbing Cleveland Center
09:28PM 39.7847 -78.7028 291° West 409 471 30,700 900 Climbing Cleveland Center
09:29PM 39.8267 -78.8450 291° West 409 471 31,700 1,080 Climbing Cleveland Center
09:30PM 39.8683 -78.9844 291° West 409 471 32,900 1,140 Climbing Cleveland Center
09:31PM 39.9097 -79.1242 290° West 409 471 34,000 540 Climbing Cleveland Center
09:32PM 39.9492 -79.2642 290° West 409 471 34,000  Level Cleveland Center
09:33PM 39.9903 -79.4097 302° West 419 482 34,000  Level Cleveland Center
09:34PM 40.0500 -79.5361 311° West 414 476 34,000  Level Cleveland Center
09:35PM 40.1258 -79.6517 304° West 414 476 34,000  Level Cleveland Center
09:36PM 40.1914 -79.7786 303° West 420 483 34,000  Level Cleveland Center
09:37PM 40.2528 -79.9003 303° West 414 476 34,000  Level Cleveland Center
09:38PM 40.3139 -80.0222 302° West 414 476 34,000  Level Cleveland Center
09:39PM 40.3750 -80.1497 303° West 414 476 34,000  Level Cleveland Center
09:40PM 40.4378 -80.2747 305° West 414 476 34,000  Level Cleveland Center
09:41PM 40.5111 -80.4111 303° West 414 476 34,000  Level Cleveland Center
09:42PM 40.5758 -80.5422 301° West 420 483 34,000  Level Cleveland Center
09:43PM 40.6278 -80.6542 299° West 415 478 34,000  Level Cleveland Center
09:44PM 40.6881 -80.7994 277° West 415 478 34,000  Level Cleveland Center
09:45PM 40.7025 -80.9472 274° West 399 459 34,000  Level Cleveland Center
09:46PM 40.7103 -81.0789 277° West 404 465 34,000  Level Cleveland Center
09:47PM 40.7242 -81.2269 275° West 409 471 34,000  Level Cleveland Center
09:48PM 40.7356 -81.3858 277° West 404 465 34,000  Level Cleveland Center
09:49PM 40.7489 -81.5314 275° West 404 465 34,000  Level Cleveland Center
09:50PM 40.7581 -81.6822 277° West 409 471 34,000  Level Cleveland Center
09:51PM 40.7711 -81.8306 276° West 409 471 34,000  Level Cleveland Center
09:52PM 40.7819 -81.9789 275° West 409 471 34,000  Level Cleveland Center
09:53PM 40.7925 -82.1272 276° West 409 471 34,000  Level Cleveland Center
09:54PM 40.8050 -82.2756 291° West 409 471 34,000  Level Cleveland Center
09:55PM 40.8428 -82.4028 288° West 403 464 34,000  Level Cleveland Center
09:56PM 40.8778 -82.5439 288° West 409 471 34,000  Level Cleveland Center
09:57PM 40.9147 -82.6906 288° West 414 476 34,000  Level Cleveland Center
09:58PM 40.9497 -82.8319 288° West 409 471 34,000  Level Cleveland Center
09:59PM 40.9844 -82.9733 287° West 409 471 34,000  Level Cleveland Center
10:00PM 41.0206 -83.1289 290° West 404 465 34,000  Level Cleveland Center
10:01PM 41.0572 -83.2597 287° West 409 471 34,000  Level Cleveland Center
10:02PM 41.0914 -83.4044 283° West 414 476 34,000  Level Cleveland Center
10:03PM 41.1186 -83.5600 285° West 404 465 34,000 -60 Level Cleveland Center
10:04PM 41.1481 -83.7019 283° West 404 465 33,900 -60 Descending Cleveland Center
10:05PM 41.1733 -83.8467 282° West 404 465 33,900  Level Cleveland Center
10:06PM 41.1961 -83.9942 285° West 404 465 34,000 600 Climbing Cleveland Center
10:07PM 41.2331 -84.1831 284° West 432 497 35,400 780 Climbing Chicago Center
10:08PM 41.2628 -84.3381 273° West 421 484 36,000 300 Climbing Chicago Center
10:09PM 41.2692 -84.4842 273° West 401 461 36,000  Level Chicago Center
10:10PM 41.2753 -84.6275 271° West 394 453 36,000  Level Chicago Center
10:11PM 41.2767 -84.7683 271° West 389 448 36,000  Level Chicago Center
10:12PM 41.2781 -84.9064 271° West 389 448 36,000  Level Chicago Center
10:13PM 41.2800 -85.0639 272° West 383 441 36,000  Level Chicago Center
10:14PM 41.2831 -85.2047 270° West 383 441 36,000  Level Chicago Center
10:15PM 41.2839 -85.3456 270° West 383 441 36,000  Level Chicago Center
10:16PM 41.2847 -85.4892 271° West 383 441 36,000  Level Chicago Center
10:17PM 41.2872 -85.6272 270° West 382 440 36,000  Level Chicago Center
10:18PM 41.2875 -85.7683 270° West 382 440 36,000  Level Chicago Center
10:19PM 41.2872 -85.8956 271° West 382 440 36,000  Level Chicago Center
10:20PM 41.2892 -86.0336 271° West 382 440 36,000  Level Chicago Center
10:21PM 41.2911 -86.1744 269° West 382 440 36,000  Level Chicago Center
10:22PM 41.2886 -86.3128 272° West 382 440 36,000  Level Chicago Center
10:23PM 41.2922 -86.4536 269° West 382 440 36,000  Level Chicago Center
10:24PM 41.2894 -86.5919 271° West 382 440 36,000  Level Chicago Center
10:25PM 41.2906 -86.7300 270° West 382 440 36,000  Level Chicago Center
10:26PM 41.2897 -86.8711 269° West 382 440 36,000  Level Chicago Center
10:27PM 41.2883 -87.0092 269° West 382 440 36,000  Level Chicago Center
10:28PM 41.2869 -87.1503 269° West 382 440 36,000  Level Chicago Center
10:29PM 41.2856 -87.2939 269° West 382 440 36,000  Level Chicago Center
10:30PM 41.2839 -87.4350 269° West 382 440 36,000  Level Chicago Center
10:31PM 41.2822 -87.5981 268° West 388 447 36,000  Level Chicago Center
10:32PM 41.2797 -87.7142 269° West 393 452 36,000  Level Chicago Center
10:33PM 41.2778 -87.8744 268° West 393 452 36,000  Level Chicago Center
10:34PM 41.2733 -88.0183 270° West 399 459 36,000  Level Chicago Center
10:35PM 41.2731 -88.1675 269° West 404 465 36,000 -60 Level Chicago Center
10:36PM 41.2703 -88.3139 270° West 404 465 35,900  Descending Chicago Center
10:37PM 41.2694 -88.4631 268° West 404 465 36,000  Climbing Chicago Center
10:38PM 41.2661 -88.6094 268° West 404 465 36,000  Level Chicago Center
10:39PM 41.2631 -88.7589 269° West 404 465 36,000  Level Chicago Center
10:40PM 41.2614 -88.9053 268° West 404 465 36,000  Level Chicago Center
10:41PM 41.2578 -89.0517 268° West 404 465 36,000  Level Chicago Center
10:42PM 41.2539 -89.2008 268° West 404 465 36,000  Level Chicago Center
10:43PM 41.2500 -89.3444 266° West 404 465 36,000  Level Chicago Center
10:44PM 41.2414 -89.4961 266° West 404 465 36,000  Level Chicago Center
10:45PM 41.2328 -89.6453 266° West 404 465 36,000  Level Chicago Center
10:46PM 41.2239 -89.7944 268° West 404 465 36,000  Level Chicago Center
10:47PM 41.2192 -89.9433 265° West 404 465 36,000  Level Chicago Center
10:48PM 41.2100 -90.0925 265° West 409 471 36,000  Level Chicago Center
10:49PM 41.2006 -90.2386 265° West 404 465 36,000  Level Chicago Center
10:50PM 41.1911 -90.3875 266° West 404 465 36,000  Level Chicago Center
10:51PM 41.1833 -90.5336 265° West 404 465 36,000  Level Chicago Center
10:52PM 41.1733 -90.6822 265° West 404 465 36,000  Level Chicago Center
10:53PM 41.1631 -90.8311 266° West 404 465 36,000  Level Chicago Center
10:54PM 41.1550 -90.9742 265° West 404 465 36,000  Level Chicago Center
10:55PM 41.1444 -91.1228 265° West 404 465 36,000  Level Chicago Center
10:56PM 41.1339 -91.2686 266° West 404 465 36,000  Level Chicago Center
10:57PM 41.1250 -91.4172 265° West 404 465 36,000  Level Chicago Center
10:58PM 41.1158 -91.5631 264° West 404 465 36,000  Level Chicago Center
10:59PM 41.1025 -91.7197 263° West 404 465 36,000  Level Chicago Center
11:00PM 41.0889 -91.8625 266° West 404 465 36,000  Level Chicago Center
11:01PM 41.0814 -92.0111 265° West 404 465 36,000  Level Chicago Center
11:02PM 41.0717 -92.1567 264° West 404 465 36,000  Level Chicago Center
11:03PM 41.0594 -92.3075 264° West 409 471 36,000  Level Chicago Center
11:04PM 41.0497 -92.4394 265° West 404 465 36,000  Level Chicago Center
11:05PM 41.0394 -92.5847 264° West 404 465 36,000  Level Chicago Center
11:06PM 41.0269 -92.7328 263° West 404 465 36,000  Level Chicago Center
11:08PM 41.0056 -92.9719 265° West 402 463 36,000  Level Minneapolis Center
11:09PM 40.9958 -93.1122 263° West 395 455 36,000  Level Minneapolis Center
11:10PM 40.9817 -93.2714 263° West 401 461 36,000  Level Minneapolis Center
11:11PM 40.9692 -93.4142 263° West 401 461 36,000  Level Minneapolis Center
11:12PM 40.9547 -93.5594 264° West 401 461 36,000  Level Minneapolis Center
11:13PM 40.9439 -93.6994 263° West 401 461 36,000  Level Minneapolis Center
11:14PM 40.9311 -93.8392 264° West 401 461 36,000  Level Minneapolis Center
11:15PM 40.9200 -93.9817 263° West 396 456 36,000  Level Minneapolis Center
11:16PM 40.9067 -94.1242 263° West 396 456 36,000  Level Minneapolis Center
11:17PM 40.8933 -94.2636 263° West 391 450 36,000  Level Minneapolis Center
11:18PM 40.8797 -94.4058 264° West 391 450 36,000  Level Minneapolis Center
11:19PM 40.8678 -94.5483 260° West 391 450 36,000  Level Minneapolis Center
11:20PM 40.8497 -94.6903 263° West 391 450 36,000  Level Minneapolis Center
11:21PM 40.8375 -94.8269 263° West 386 444 36,000  Level Minneapolis Center
11:22PM 40.8233 -94.9692 263° West 392 451 36,000  Level Minneapolis Center
11:23PM 40.8108 -95.1083 262° West 392 451 36,000  Level Minneapolis Center
11:24PM 40.7961 -95.2447 261° West 387 445 36,000 -60 Level Minneapolis Center
11:25PM 40.7792 -95.3811 263° West 387 445 35,900  Descending Minneapolis Center
11:26PM 40.7664 -95.5203 262° West 387 445 36,000  Climbing Minneapolis Center
11:27PM 40.7508 -95.6647 262° West 392 451 36,000  Level Minneapolis Center
11:28PM 40.7356 -95.8008 262° West 387 445 36,000  Level Minneapolis Center
11:29PM 40.7200 -95.9450 263° West 387 445 36,000  Level Minneapolis Center
11:30PM 40.7061 -96.0839 261° West 387 445 36,000  Level Minneapolis Center
11:31PM 40.6881 -96.2308 263° West 397 457 36,000  Level Minneapolis Center
11:32PM 40.6767 -96.3475 261° West 402 463 36,000  Level Minneapolis Center
11:33PM 40.6578 -96.5025 261° West 407 468 36,000  Level Minneapolis Center
11:34PM 40.6411 -96.6436 262° West 407 468 36,000  Level Minneapolis Center
11:35PM 40.6242 -96.7928 261° West 407 468 36,000  Level Minneapolis Center
11:36PM 40.6072 -96.9394 262° West 407 468 36,000  Level Minneapolis Center
11:37PM 40.5919 -97.0886 260° West 407 468 36,000  Level Minneapolis Center
11:38PM 40.5722 -97.2375 263° West 407 468 36,000  Level Minneapolis Center
11:39PM 40.5586 -97.3839 261° West 412 474 36,000  Level Minneapolis Center
11:40PM 40.5406 -97.5356 260° West 412 474 36,000  Level Minneapolis Center
11:41PM 40.5200 -97.6922 261° West 429 494 36,000  Level Minneapolis Center
11:42PM 40.5014 -97.8436 260° West 429 494 36,000  Level Minneapolis Center
11:43PM 40.4806 -97.9975 261° West 429 494 36,000  Level Minneapolis Center
11:44PM 40.4617 -98.1514 259° West 429 494 36,000  Level Minneapolis Center
11:45PM 40.4375 -98.3183 260° West 429 494 36,000  Level Minneapolis Center
11:47PM 40.4003 -98.5978 261° West 416 479 36,000  Level Denver Center
11:48PM 40.3814 -98.7500 260° West 422 486 36,000  Level Denver Center
11:49PM 40.3606 -98.9081 260° West 433 498 36,000  Level Denver Center
11:50PM 40.3394 -99.0631 259° West 433 498 36,000  Level Denver Center
11:51PM 40.3161 -99.2183 261° West 433 498 36,000  Level Denver Center
11:52PM 40.2964 -99.3731 260° West 433 498 36,000  Level Denver Center
11:53PM 40.2747 -99.5281 259° West 433 498 36,000  Level Denver Center
11:54PM 40.2525 -99.6828 259° West 433 498 36,000  Level Denver Center
11:55PM 40.2283 -99.8378 261° West 433 498 36,000  Level Denver Center
11:56PM 40.2097 -99.9892 259° West 433 498 36,000  Level Denver Center
11:57PM 40.1883 -100.1300 259° West 433 498 36,000  Level Denver Center
11:58PM 40.1653 -100.2817 259° West 433 498 36,000  Level Denver Center
11:59PM 40.1425 -100.4414 258° West 423 487 36,000  Level Denver Center
12:00AM 40.1189 -100.5903 259° West 416 479 36,000  Level Denver Center
12:01AM 40.0986 -100.7253 258° West 421 484 36,000  Level Denver Center
12:02AM 40.0747 -100.8739 258° West 421 484 36,000  Level Denver Center
12:03AM 40.0492 -101.0361 260° West 416 479 36,000  Level Denver Center
12:04AM 40.0289 -101.1842 257° West 416 479 36,000  Level Denver Center
12:05AM 40.0022 -101.3328 259° West 416 479 36,000  Level Denver Center
12:06AM 39.9811 -101.4700 257° West 416 479 36,000  Level Denver Center
12:07AM 39.9528 -101.6319 259° West 418 481 36,000  Level Denver Center
12:08AM 39.9297 -101.7825 257° West 423 487 36,000  Level Denver Center
12:09AM 39.9044 -101.9306 259° West 423 487 36,000  Level Denver Center
12:10AM 39.8847 -102.0672 257° West 423 487 36,000 -600 Level Denver Center
12:11AM 39.8553 -102.2289 258° West 423 487 34,800 -1,020 Descending Denver Center
12:12AM 39.8314 -102.3764 256° West 423 487 34,000 -420 Descending Denver Center
12:13AM 39.8033 -102.5267 259° West 423 487 34,000  Level Denver Center
12:14AM 39.7831 -102.6631 259° West 423 487 34,000  Level Denver Center
12:15AM 39.7608 -102.8156 257° West 434 499 34,000  Level Denver Center
12:16AM 39.7342 -102.9628 258° West 429 494 34,000  Level Denver Center
12:17AM 39.7078 -103.1261 257° West 429 494 34,000  Level Denver Center
12:18AM 39.6806 -103.2758 257° West 429 494 34,000  Level Denver Center
12:19AM 39.6536 -103.4281 257° West 429 494 34,000  Level Denver Center
12:20AM 39.6261 -103.5778 256° West 429 494 34,000  Level Denver Center
12:21AM 39.5983 -103.7244 257° West 429 494 34,000  Level Denver Center
12:22AM 39.5708 -103.8792 256° West 434 499 34,000  Level Denver Center
12:23AM 39.5428 -104.0283 256° West 434 499 34,000  Level Denver Center
12:24AM 39.5144 -104.1772 257° West 434 499 34,000  Level Denver Center
12:25AM 39.4900 -104.3125 256° West 434 499 34,000  Level Denver Center
12:26AM 39.4614 -104.4589 257° West 434 499 34,000  Level Denver Center
12:27AM 39.4328 -104.6128 255° West 439 505 34,000  Level Denver Center
12:28AM 39.3978 -104.7778 258° West 439 505 34,000  Level Denver Center
12:29AM 39.3728 -104.9261 256° West 434 499 34,000  Level Denver Center
12:30AM 39.3433 -105.0744 257° West 434 499 34,000  Level Denver Center
12:31AM 39.3178 -105.2197 255° West 428 493 34,000  Level Denver Center
12:32AM 39.2881 -105.3653 255° West 423 487 34,000  Level Denver Center
12:33AM 39.2581 -105.5106 256° West 423 487 34,000  Level Denver Center
12:34AM 39.2281 -105.6611 256° West 428 493 34,000  Level Denver Center
12:35AM 39.2017 -105.7928 255° West 428 493 34,000  Level Denver Center
12:36AM 39.1714 -105.9403 255° West 433 498 34,000  Level Denver Center
12:37AM 39.1406 -106.0878 256° West 427 491 34,000  Level Denver Center
12:38AM 39.1117 -106.2350 256° West 427 491 34,000  Level Denver Center
12:39AM 39.0808 -106.3983 255° West 432 497 34,000  Level Denver Center
12:40AM 39.0494 -106.5481 254° West 432 497 34,000  Level Denver Center
12:41AM 39.0181 -106.6922 255° West 432 497 34,000  Level Denver Center
12:42AM 38.9906 -106.8258 255° West 432 497 34,000  Level Denver Center
12:43AM 38.9564 -106.9883 254° West 437 503 34,000  Level Denver Center
12:44AM 38.9244 -107.1350 255° West 437 503 34,000  Level Denver Center
12:45AM 38.8944 -107.2814 255° West 437 503 34,000  Level Denver Center
12:46AM 38.8661 -107.4169 253° West 432 497 34,000  Level Denver Center
12:47AM 38.8317 -107.5606 255° West 432 497 34,000  Level Denver Center
12:48AM 38.7986 -107.7225 253° West 432 497 34,000  Level Denver Center
12:49AM 38.7636 -107.8683 256° West 432 497 34,000  Level Denver Center
12:50AM 38.7389 -107.9956 254° West 432 497 34,000  Level Denver Center
12:51AM 38.7056 -108.1439 254° West 427 491 34,000  Level Denver Center
12:52AM 38.6700 -108.3000 254° West 427 491 34,000  Level Denver Center
12:53AM 38.6383 -108.4453 253° West 419 482 34,000  Level Denver Center
12:54AM 38.6089 -108.5719 254° West 419 482 34,000  Level Denver Center
12:55AM 38.5769 -108.7144 253° West 414 476 34,000  Level Denver Center
12:56AM 38.5383 -108.8750 254° West 414 476 34,000  Level Denver Center
12:57AM 38.5058 -109.0172 255° West 414 476 34,000  Level Denver Center
12:58AM 38.4756 -109.1594 253° West 414 476 34,000  Level Denver Center
01:00AM 38.3969 -109.4903 253° West 420 483 34,000  Level Salt Lake Center
01:01AM 38.3650 -109.6256 253° West 418 481 34,000  Level Salt Lake Center
01:02AM 38.3317 -109.7628 253° West 421 484 34,000  Level Salt Lake Center
01:03AM 38.2931 -109.9244 246° West 425 489 34,000  Level Salt Lake Center
01:04AM 38.2467 -110.0575 243° Southwest 426 490 34,000  Level Salt Lake Center
01:05AM 38.1853 -110.2125 243° Southwest 436 502 34,000 -60 Level Salt Lake Center
01:06AM 38.1333 -110.3431 243° Southwest 433 498 33,900  Descending Salt Lake Center
01:07AM 38.0814 -110.4731 243° Southwest 432 497 34,000 -240 Climbing Salt Lake Center
01:08AM 38.0200 -110.6272 243° Southwest 436 502 33,500 -840 Descending Salt Lake Center
01:09AM 37.9675 -110.7586 244° Southwest 436 502 32,300 -1,320 Descending Salt Lake Center
01:10AM 37.9156 -110.8919 243° Southwest 438 504 30,900 -1,140 Descending Salt Lake Center
01:11AM 37.8586 -111.0353 242° Southwest 445 512 30,000 -480 Descending Salt Lake Center
01:12AM 37.8006 -111.1761 242° Southwest 445 512 30,000  Level Salt Lake Center
01:13AM 37.7431 -111.3156 243° Southwest 443 510 30,000  Level Salt Lake Center
01:14AM 37.6869 -111.4558 243° Southwest 441 507 30,000  Level Salt Lake Center
01:15AM 37.6303 -111.5958 243° Southwest 441 507 30,000  Level Salt Lake Center
01:16AM 37.5731 -111.7372 243° Southwest 443 510 30,000  Level Salt Lake Center
01:17AM 37.5161 -111.8761 243° Southwest 441 507 30,000  Level Salt Lake Center
01:18AM 37.4581 -112.0181 242° Southwest 444 511 30,000  Level Salt Lake Center
01:20AM 37.3989 -112.1603 242° Southwest 448 516 30,000  Level Salt Lake Center
01:21AM 37.3403 -112.3014 242° Southwest 448 516 30,000  Level Salt Lake Center
01:22AM 37.2811 -112.4422 242° Southwest 446 513 30,000  Level Salt Lake Center
01:23AM 37.2217 -112.5836 242° Southwest 447 514 30,000  Level Salt Lake Center
01:24AM 37.1631 -112.7236 242° Southwest 445 512 30,000  Level Salt Lake Center
01:25AM 37.1036 -112.8644 242° Southwest 446 513 30,000  Level Salt Lake Center
01:26AM 37.0439 -113.0053 242° Southwest 447 514 30,000  Level Salt Lake Center
01:27AM 36.9833 -113.1450 242° Southwest 448 516 30,000  Level Salt Lake Center
01:28AM 36.9247 -113.2831 242° Southwest 446 513 30,000 -600 Level Salt Lake Center
01:29AM 36.8425 -113.4778 241° Southwest 444 511 28,600 -1,620 Descending Los Angeles Center
01:30AM 36.7828 -113.6144 242° Southwest 444 511 26,200 -2,100 Descending Los Angeles Center
01:31AM 36.7311 -113.7353 242° Southwest 444 511 24,400 -2,160 Descending Los Angeles Center
01:32AM 36.6750 -113.8664 241° Southwest 438 504 21,900 -2,520 Descending Los Angeles Center
01:33AM 36.6189 -113.9922 242° Southwest 427 491 19,400 -2,700 Descending Los Angeles Center
01:34AM 36.5667 -114.1125 241° Southwest 415 478 16,600 -2,940 Descending Los Angeles Center
01:35AM 36.5183 -114.2197 237° Southwest 411 473 14,400 -2,520 Descending Los Angeles Center
01:36AM 36.4575 -114.3372 240° Southwest 386 444 12,000 -1,080 Descending Los Angeles Center
01:37AM 36.4050 -114.4519 228° Southwest 319 367 12,000  Level Los Angeles Center
01:38AM 36.3539 -114.5228 187° South 299 344 12,000 -120 Level Los Angeles Center
01:39AM 36.2642 -114.5372 195° South 309 356 11,800 -720 Descending Los Angeles Center
01:40AM 36.1894 -114.5619 230° Southwest 287 330 10,600 -1,440 Descending Los Angeles Center
01:41AM 36.1403 -114.6350 228° Southwest 270 311 9,000 -1,260 Descending Los Angeles Center
01:42AM 36.0931 -114.7000 253° West 270 311 8,100 -900 Descending Los Angeles Center
01:43AM 36.0753 -114.7722 269° West 231 266 7,300 -900 Descending Los Angeles Center
01:44AM 36.0739 -114.8469 271° West 221 254 6,300 -1,140 Descending Los Angeles Center
01:45AM 36.0747 -114.9239 271° West 221 254 5,100 -1,200 Descending Los Angeles Center